Time;durP1;ratioP1;P1;durP2;ratioP2;P2;SDS_P1;SDS_P2;PMS_P1;PMS_P2;Temp;Humidity;BMP_temperature;BMP_pressure;BME280_temperature;BME280_humidity;BME280_pressure;Samples;Min_cycle;Max_cycle;Signal;HPM_P1;HPM_P2
2023/05/24 00:02:22;;;;;;;17.43;11.07;;;;;;;;;;6354020;27;20172;-52
2023/05/24 00:05:23;;;;;;;13.63;10.90;;;;;;;;;;6332304;27;20195;-52
2023/05/24 00:08:24;;;;;;;15.73;10.93;;;;;;;;;;6352567;27;20180;-50
2023/05/24 00:11:26;;;;;;;17.87;11.20;;;;;;;;;;6318263;27;20286;-51
2023/05/24 00:14:27;;;;;;;18.40;12.03;;;;;;;;;;6332012;27;20195;-53
2023/05/24 00:17:29;;;;;;;17.03;11.73;;;;;;;;;;6332805;27;20193;-52
2023/05/24 00:20:30;;;;;;;19.50;11.63;;;;;;;;;;6330039;28;20208;-52
2023/05/24 00:23:31;;;;;;;21.67;11.30;;;;;;;;;;6353771;27;20190;-51
2023/05/24 00:26:32;;;;;;;17.60;10.67;;;;;;;;;;6334362;27;20191;-52
2023/05/24 00:29:33;;;;;;;17.60;11.60;;;;;;;;;;6329150;27;20235;-51
2023/05/24 00:32:34;;;;;;;17.67;13.27;;;;;;;;;;6336633;27;20188;-51
2023/05/24 00:35:35;;;;;;;15.30;11.60;;;;;;;;;;6342888;27;20198;-53
2023/05/24 00:38:36;;;;;;;14.70;11.33;;;;;;;;;;6321662;27;20210;-54
2023/05/24 00:41:37;;;;;;;21.50;12.30;;;;;;;;;;6333891;28;20186;-51
2023/05/24 00:44:38;;;;;;;17.57;12.20;;;;;;;;;;6342711;27;20186;-55
2023/05/24 00:47:39;;;;;;;14.80;12.33;;;;;;;;;;6336899;28;20180;-52
2023/05/24 00:50:40;;;;;;;22.27;12.73;;;;;;;;;;6334746;27;20300;-52
2023/05/24 00:53:44;;;;;;;16.07;11.47;;;;;;;;;;6321539;27;20183;-55
2023/05/24 00:56:45;;;;;;;15.70;12.13;;;;;;;;;;6347905;28;20180;-54
2023/05/24 00:59:46;;;;;;;17.17;12.40;;;;;;;;;;6328193;27;20257;-55
2023/05/24 01:02:48;;;;;;;19.83;12.77;;;;;;;;;;6339583;27;20255;-55
2023/05/24 01:05:49;;;;;;;21.70;12.03;;;;;;;;;;6323343;27;20206;-55
2023/05/24 01:09:01;;;;;;;19.27;12.30;;;;;;;;;;6330066;27;20199;-55
2023/05/24 01:12:06;;;;;;;21.30;12.57;;;;;;;;;;6333212;28;20192;-57
2023/05/24 01:15:09;;;;;;;21.10;11.93;;;;;;;;;;6345446;27;20672;-56
2023/05/24 01:18:16;;;;;;;17.77;11.43;;;;;;;;;;6345095;27;20249;-55
2023/05/24 01:21:37;;;;;;;18.97;13.00;;;;;;;;;;6346531;27;20187;-56
2023/05/24 01:24:47;;;;;;;16.97;11.73;;;;;;;;;;6344208;27;20185;-53
2023/05/24 01:27:49;;;;;;;17.60;12.80;;;;;;;;;;6332198;27;20310;-56
2023/05/24 01:30:51;;;;;;;20.87;13.27;;;;;;;;;;6336053;27;20198;-50
2023/05/24 01:33:52;;;;;;;21.97;12.63;;;;;;;;;;6338941;27;20187;-55
2023/05/24 01:36:53;;;;;;;17.23;12.20;;;;;;;;;;6332550;27;20240;-53
2023/05/24 01:39:54;;;;;;;23.20;13.53;;;;;;;;;;6338931;27;20306;-55
2023/05/24 01:43:05;;;;;;;16.43;12.10;;;;;;;;;;6332215;28;20188;-54
2023/05/24 01:46:18;;;;;;;17.57;13.20;;;;;;;;;;6339955;27;20181;-51
2023/05/24 01:49:19;;;;;;;19.53;13.33;;;;;;;;;;6336684;28;20213;-55
2023/05/24 01:52:22;;;;;;;26.07;13.67;;;;;;;;;;6348381;27;20186;-55
2023/05/24 01:55:27;;;;;;;19.27;14.17;;;;;;;;;;6359453;27;20175;-54
2023/05/24 01:58:29;;;;;;;20.70;13.23;;;;;;;;;;6356970;27;20200;-56
2023/05/24 02:01:31;;;;;;;26.77;15.00;;;;;;;;;;6348074;28;20200;-51
2023/05/24 02:04:32;;;;;;;24.53;14.77;;;;;;;;;;6358013;27;20593;-54
2023/05/24 02:07:33;;;;;;;23.00;14.03;;;;;;;;;;6358381;27;20270;-54
2023/05/24 02:10:37;;;;;;;24.00;13.37;;;;;;;;;;6335270;27;20191;-56
2023/05/24 02:13:38;;;;;;;18.53;13.03;;;;;;;;;;6358582;27;20187;-55
2023/05/24 02:16:45;;;;;;;16.73;13.53;;;;;;;;;;6327159;27;20233;-54
2023/05/24 02:19:46;;;;;;;18.70;13.03;;;;;;;;;;6330902;27;20212;-55
2023/05/24 02:22:48;;;;;;;19.23;13.70;;;;;;;;;;6336259;27;20232;-55
2023/05/24 02:25:49;;;;;;;23.80;13.47;;;;;;;;;;6341469;27;20188;-55
2023/05/24 02:28:50;;;;;;;20.13;13.20;;;;;;;;;;6341558;27;20317;-52
2023/05/24 02:31:55;;;;;;;16.27;13.03;;;;;;;;;;6340307;28;20184;-55
2023/05/24 02:34:57;;;;;;;18.60;13.00;;;;;;;;;;6339790;27;20209;-51
2023/05/24 02:38:00;;;;;;;23.83;13.83;;;;;;;;;;6339752;27;20274;-55
2023/05/24 02:41:01;;;;;;;19.87;13.80;;;;;;;;;;6336100;27;20202;-53
2023/05/24 02:44:02;;;;;;;23.33;15.17;;;;;;;;;;6334708;27;20179;-54
2023/05/24 02:47:03;;;;;;;17.83;12.07;;;;;;;;;;6332594;27;20206;-53
2023/05/24 02:50:05;;;;;;;21.30;14.50;;;;;;;;;;6316990;27;20284;-55
2023/05/24 02:53:06;;;;;;;19.30;13.50;;;;;;;;;;6326019;27;20188;-52
2023/05/24 02:56:07;;;;;;;23.23;13.53;;;;;;;;;;6329374;28;20184;-56
2023/05/24 02:59:08;;;;;;;24.80;13.47;;;;;;;;;;6344217;28;20244;-53
2023/05/24 03:02:12;;;;;;;19.70;13.87;;;;;;;;;;6340249;27;20186;-56
2023/05/24 03:05:13;;;;;;;17.13;12.83;;;;;;;;;;6343848;27;20194;-58
2023/05/24 03:08:15;;;;;;;22.50;13.23;;;;;;;;;;6327522;27;20184;-56
2023/05/24 03:11:20;;;;;;;22.60;13.40;;;;;;;;;;6327828;27;20191;-55
2023/05/24 03:14:23;;;;;;;20.73;13.17;;;;;;;;;;6346115;27;20216;-55
2023/05/24 03:17:25;;;;;;;23.63;13.83;;;;;;;;;;6332813;27;20274;-55
2023/05/24 03:20:26;;;;;;;15.87;12.27;;;;;;;;;;6351346;27;20216;-55
2023/05/24 03:23:28;;;;;;;19.97;13.33;;;;;;;;;;6334852;27;20188;-53
2023/05/24 03:26:29;;;;;;;19.40;12.87;;;;;;;;;;6332866;27;20187;-56
2023/05/24 03:29:30;;;;;;;18.47;12.90;;;;;;;;;;6325402;27;20293;-54
2023/05/24 03:32:31;;;;;;;20.27;13.67;;;;;;;;;;6334193;27;20192;-54
2023/05/24 03:35:32;;;;;;;13.77;11.33;;;;;;;;;;6344382;27;20245;-54
2023/05/24 03:38:33;;;;;;;16.03;12.40;;;;;;;;;;6332097;28;20218;-56
2023/05/24 03:41:35;;;;;;;19.07;13.27;;;;;;;;;;6335491;27;20188;-56
2023/05/24 03:44:36;;;;;;;19.93;13.77;;;;;;;;;;6347789;27;20239;-55
2023/05/24 03:47:37;;;;;;;16.60;12.83;;;;;;;;;;6331390;27;20184;-53
2023/05/24 03:50:38;;;;;;;17.33;13.10;;;;;;;;;;6342865;27;20211;-56
2023/05/24 03:53:39;;;;;;;18.73;12.77;;;;;;;;;;6349657;27;20343;-54
2023/05/24 03:56:40;;;;;;;18.63;12.87;;;;;;;;;;6342617;27;20187;-54
2023/05/24 03:59:41;;;;;;;18.03;12.77;;;;;;;;;;6353380;27;20631;-55
2023/05/24 04:02:42;;;;;;;20.07;13.03;;;;;;;;;;6322705;27;20187;-55
2023/05/24 04:05:43;;;;;;;19.93;13.17;;;;;;;;;;6335509;27;20253;-56
2023/05/24 04:08:44;;;;;;;19.90;12.87;;;;;;;;;;6336686;27;20182;-54
2023/05/24 04:11:45;;;;;;;16.70;12.60;;;;;;;;;;6323841;27;20192;-56
2023/05/24 04:14:46;;;;;;;13.20;11.80;;;;;;;;;;6320632;28;20195;-58
2023/05/24 04:17:53;;;;;;;20.67;13.33;;;;;;;;;;6330822;27;20194;-55
2023/05/24 04:20:54;;;;;;;17.03;13.00;;;;;;;;;;6348246;27;20218;-53
2023/05/24 04:23:56;;;;;;;15.67;12.43;;;;;;;;;;6324763;28;20210;-55
2023/05/24 04:26:58;;;;;;;21.00;13.47;;;;;;;;;;6337823;27;20195;-55
2023/05/24 04:29:59;;;;;;;17.40;13.53;;;;;;;;;;6333084;27;20237;-54
2023/05/24 04:33:00;;;;;;;17.67;12.50;;;;;;;;;;6333861;27;20187;-54
2023/05/24 04:36:01;;;;;;;16.60;12.60;;;;;;;;;;6359282;27;20274;-54
2023/05/24 04:39:03;;;;;;;16.87;11.87;;;;;;;;;;6322708;28;20211;-53
2023/05/24 04:42:04;;;;;;;16.07;12.73;;;;;;;;;;6320196;28;20192;-56
2023/05/24 04:45:06;;;;;;;16.87;12.13;;;;;;;;;;6339795;27;20194;-55
2023/05/24 04:48:07;;;;;;;16.63;12.80;;;;;;;;;;6320418;28;20198;-56
2023/05/24 04:51:08;;;;;;;15.57;12.47;;;;;;;;;;6330752;27;20187;-56
2023/05/24 04:54:09;;;;;;;17.83;12.03;;;;;;;;;;6353987;27;20196;-54
2023/05/24 04:57:10;;;;;;;15.50;11.70;;;;;;;;;;6342331;27;20191;-54
2023/05/24 05:00:11;;;;;;;15.37;11.67;;;;;;;;;;6327991;27;20263;-55
2023/05/24 05:03:13;;;;;;;15.80;12.40;;;;;;;;;;6339869;27;20191;-54
2023/05/24 05:06:14;;;;;;;17.03;12.23;;;;;;;;;;6345712;27;20281;-56
2023/05/24 05:09:15;;;;;;;13.90;11.90;;;;;;;;;;6351638;27;20231;-56
2023/05/24 05:12:16;;;;;;;14.97;12.57;;;;;;;;;;6316664;28;20187;-56
2023/05/24 05:15:17;;;;;;;12.70;11.23;;;;;;;;;;6331962;27;20217;-56
2023/05/24 05:18:18;;;;;;;15.80;12.60;;;;;;;;;;6341359;27;20266;-57
2023/05/24 05:21:19;;;;;;;16.07;12.87;;;;;;;;;;6342332;27;20184;-56
2023/05/24 05:24:20;;;;;;;13.43;12.00;;;;;;;;;;6324227;27;20191;-57
2023/05/24 05:27:21;;;;;;;14.93;12.73;;;;;;;;;;6339365;28;20184;-51
2023/05/24 05:30:24;;;;;;;19.07;13.20;;;;;;;;;;6348626;28;20644;-57
2023/05/24 05:33:25;;;;;;;16.00;12.97;;;;;;;;;;6335423;27;20179;-54
2023/05/24 05:36:26;;;;;;;14.97;12.57;;;;;;;;;;6333812;28;20183;-53
2023/05/24 05:39:27;;;;;;;18.53;13.40;;;;;;;;;;6318937;28;20302;-54
2023/05/24 05:42:28;;;;;;;14.57;12.77;;;;;;;;;;6328796;28;20221;-56
2023/05/24 05:45:29;;;;;;;16.80;13.17;;;;;;;;;;6339561;27;20190;-57
2023/05/24 05:48:30;;;;;;;20.87;13.63;;;;;;;;;;6338276;28;20195;-56
2023/05/24 05:51:31;;;;;;;16.20;12.60;;;;;;;;;;6330351;28;20254;-54
2023/05/24 05:54:33;;;;;;;20.20;12.57;;;;;;;;;;6331820;27;20199;-56
2023/05/24 05:57:34;;;;;;;17.47;12.53;;;;;;;;;;6335792;28;20198;-54
2023/05/24 06:00:35;;;;;;;13.80;12.00;;;;;;;;;;6323912;28;20225;-56
2023/05/24 06:03:36;;;;;;;20.43;14.07;;;;;;;;;;6342807;28;20275;-56
2023/05/24 06:06:37;;;;;;;20.47;14.20;;;;;;;;;;6318795;28;20240;-54
2023/05/24 06:09:39;;;;;;;14.27;12.60;;;;;;;;;;6312380;28;20195;-56
2023/05/24 06:12:40;;;;;;;18.97;13.87;;;;;;;;;;6318014;28;20252;-53
2023/05/24 06:15:41;;;;;;;15.03;13.03;;;;;;;;;;6327191;28;20193;-55
2023/05/24 06:18:42;;;;;;;16.90;14.60;;;;;;;;;;6340338;28;20264;-54
2023/05/24 06:21:47;;;;;;;15.00;13.40;;;;;;;;;;6326972;28;20198;-51
2023/05/24 06:24:48;;;;;;;18.10;13.93;;;;;;;;;;6339237;27;20189;-53
2023/05/24 06:27:52;;;;;;;14.10;12.60;;;;;;;;;;6331519;28;20214;-53
2023/05/24 06:30:53;;;;;;;13.80;12.30;;;;;;;;;;6329015;28;20264;-52
2023/05/24 06:33:54;;;;;;;14.60;12.00;;;;;;;;;;6338361;27;20270;-54
2023/05/24 06:36:55;;;;;;;15.47;12.93;;;;;;;;;;6336984;27;20191;-54
2023/05/24 06:39:56;;;;;;;14.30;12.60;;;;;;;;;;6344837;27;20271;-54
2023/05/24 06:42:57;;;;;;;13.90;12.13;;;;;;;;;;6346192;27;20191;-52
2023/05/24 06:45:58;;;;;;;15.57;12.63;;;;;;;;;;6320139;27;20219;-53
2023/05/24 06:49:00;;;;;;;15.13;12.63;;;;;;;;;;6326197;28;20192;-54
2023/05/24 06:52:01;;;;;;;12.83;11.53;;;;;;;;;;6342817;27;20211;-54
2023/05/24 06:55:02;;;;;;;13.23;11.33;;;;;;;;;;6348304;27;20205;-53
2023/05/24 06:58:03;;;;;;;15.93;12.33;;;;;;;;;;6333938;27;20209;-51
2023/05/24 07:01:04;;;;;;;15.10;11.87;;;;;;;;;;6329640;27;20212;-55
2023/05/24 07:04:06;;;;;;;13.53;11.50;;;;;;;;;;6341115;27;20195;-54
2023/05/24 07:07:11;;;;;;;16.67;12.87;;;;;;;;;;6362010;27;20195;-52
2023/05/24 07:10:13;;;;;;;12.37;11.07;;;;;;;;;;6351324;27;20331;-53
2023/05/24 07:13:14;;;;;;;13.33;10.70;;;;;;;;;;6357640;27;20202;-54
2023/05/24 07:16:15;;;;;;;11.50;10.37;;;;;;;;;;6338599;27;20198;-49
2023/05/24 07:19:16;;;;;;;12.40;11.20;;;;;;;;;;6324379;27;20307;-51
2023/05/24 07:22:17;;;;;;;15.47;11.93;;;;;;;;;;6330698;28;20197;-52
2023/05/24 07:25:18;;;;;;;12.23;10.73;;;;;;;;;;6340334;27;20264;-53
2023/05/24 07:28:19;;;;;;;15.30;11.50;;;;;;;;;;6335703;28;20227;-54
2023/05/24 07:31:21;;;;;;;12.47;11.27;;;;;;;;;;6332145;27;20194;-52
2023/05/24 07:34:26;;;;;;;12.97;11.53;;;;;;;;;;6317179;28;20188;-54
2023/05/24 07:37:27;;;;;;;13.60;11.37;;;;;;;;;;6362328;27;20215;-53
2023/05/24 07:40:28;;;;;;;13.07;10.63;;;;;;;;;;6325937;27;20260;-54
2023/05/24 07:43:29;;;;;;;15.50;11.73;;;;;;;;;;6329656;28;20192;-54
2023/05/24 07:46:30;;;;;;;12.90;11.53;;;;;;;;;;6323241;27;20196;-54
2023/05/24 07:49:31;;;;;;;12.50;11.30;;;;;;;;;;6320502;27;20202;-54
2023/05/24 07:52:32;;;;;;;13.07;10.63;;;;;;;;;;6343552;27;20191;-55
2023/05/24 07:55:33;;;;;;;16.57;11.53;;;;;;;;;;6332468;27;20323;-53
2023/05/24 07:58:34;;;;;;;12.60;11.30;;;;;;;;;;6321797;28;20223;-54
2023/05/24 08:01:35;;;;;;;14.10;11.70;;;;;;;;;;6334167;27;20195;-55
2023/05/24 08:04:37;;;;;;;16.23;12.77;;;;;;;;;;6340614;27;20187;-55
2023/05/24 08:07:39;;;;;;;19.17;12.67;;;;;;;;;;6325635;27;20183;-54
2023/05/24 08:10:40;;;;;;;18.80;13.50;;;;;;;;;;6328753;28;20191;-54
2023/05/24 08:13:41;;;;;;;21.73;13.20;;;;;;;;;;6327419;28;20199;-53
2023/05/24 08:16:42;;;;;;;25.20;15.03;;;;;;;;;;6318073;27;20237;-55
2023/05/24 08:19:43;;;;;;;21.67;13.53;;;;;;;;;;6330001;27;20211;-52
2023/05/24 08:22:44;;;;;;;45.33;19.17;;;;;;;;;;6341359;27;20294;-52
2023/05/24 08:25:45;;;;;;;29.77;17.57;;;;;;;;;;6319306;28;20195;-53
2023/05/24 08:28:46;;;;;;;43.43;20.60;;;;;;;;;;6330102;27;20246;-55
2023/05/24 08:31:47;;;;;;;48.10;21.67;;;;;;;;;;6341371;28;20227;-55
2023/05/24 08:34:49;;;;;;;27.70;16.60;;;;;;;;;;6330054;27;20194;-54
2023/05/24 08:37:50;;;;;;;28.70;17.63;;;;;;;;;;6317048;27;20191;-54
2023/05/24 08:40:51;;;;;;;47.97;19.97;;;;;;;;;;6319520;27;20222;-54
2023/05/24 08:43:53;;;;;;;55.67;24.00;;;;;;;;;;6337945;27;20191;-52
2023/05/24 08:46:55;;;;;;;37.73;18.83;;;;;;;;;;6343007;28;20190;-55
2023/05/24 08:49:56;;;;;;;48.53;20.70;;;;;;;;;;6335734;27;20195;-54
2023/05/24 08:52:58;;;;;;;48.27;19.70;;;;;;;;;;6340281;27;20208;-54
2023/05/24 08:56:00;;;;;;;53.93;21.00;;;;;;;;;;6314203;28;20200;-55
2023/05/24 08:59:01;;;;;;;67.47;24.03;;;;;;;;;;6329626;27;20216;-54
2023/05/24 09:02:03;;;;;;;47.87;20.43;;;;;;;;;;6334767;27;20243;-53
2023/05/24 09:05:05;;;;;;;56.00;21.67;;;;;;;;;;6335527;27;20191;-53
2023/05/24 09:08:06;;;;;;;44.97;19.53;;;;;;;;;;6344323;27;20187;-53
2023/05/24 09:11:08;;;;;;;30.80;16.23;;;;;;;;;;6327567;27;20191;-53
2023/05/24 09:14:09;;;;;;;49.93;18.13;;;;;;;;;;6339484;28;20216;-55
2023/05/24 09:17:11;;;;;;;25.70;14.53;;;;;;;;;;6325694;27;20241;-54
2023/05/24 09:20:13;;;;;;;47.00;18.97;;;;;;;;;;6325214;27;20322;-53
2023/05/24 09:23:14;;;;;;;41.23;17.97;;;;;;;;;;6339906;28;20180;-55
2023/05/24 09:26:15;;;;;;;33.23;17.93;;;;;;;;;;6330108;27;20183;-54
2023/05/24 09:29:16;;;;;;;37.77;17.60;;;;;;;;;;6316434;27;20239;-54
2023/05/24 09:32:18;;;;;;;45.30;19.40;;;;;;;;;;6329073;28;20183;-54
2023/05/24 09:35:19;;;;;;;29.93;16.87;;;;;;;;;;6328618;27;20196;-55
2023/05/24 09:38:20;;;;;;;35.57;18.20;;;;;;;;;;6323644;28;20240;-55
2023/05/24 09:41:22;;;;;;;37.93;17.67;;;;;;;;;;6325290;28;20286;-55
2023/05/24 09:44:29;;;;;;;26.63;15.63;;;;;;;;;;6328781;28;20187;-55
2023/05/24 09:47:31;;;;;;;30.87;17.93;;;;;;;;;;6329176;28;20200;-55
2023/05/24 09:50:32;;;;;;;44.70;19.53;;;;;;;;;;6336393;28;20206;-56
2023/05/24 09:53:34;;;;;;;25.00;13.53;;;;;;;;;;6316551;28;20196;-55
2023/05/24 09:56:35;;;;;;;22.97;13.77;;;;;;;;;;6318034;27;20202;-55
2023/05/24 09:59:39;;;;;;;21.97;13.83;;;;;;;;;;6325248;28;20229;-54
2023/05/24 10:02:41;;;;;;;24.60;15.93;;;;;;;;;;6330695;28;20223;-54
2023/05/24 10:05:45;;;;;;;30.50;16.97;;;;;;;;;;6346908;27;20179;-55
2023/05/24 10:08:50;;;;;;;80.77;22.47;;;;;;;;;;6351015;27;20234;-54
2023/05/24 10:11:51;;;;;;;27.83;16.77;;;;;;;;;;6350593;27;20279;-54
2023/05/24 10:14:56;;;;;;;50.17;19.20;;;;;;;;;;6331904;27;20194;-55
2023/05/24 10:17:58;;;;;;;47.33;19.70;;;;;;;;;;6347370;27;20188;-56
2023/05/24 10:21:01;;;;;;;71.93;20.43;;;;;;;;;;6342490;27;20218;-55
2023/05/24 10:24:05;;;;;;;43.83;18.17;;;;;;;;;;6344159;28;20187;-55
2023/05/24 10:27:07;;;;;;;52.73;18.97;;;;;;;;;;6336819;27;20248;-54
2023/05/24 10:30:12;;;;;;;60.10;20.80;;;;;;;;;;6340285;27;20283;-55
2023/05/24 10:33:13;;;;;;;34.93;15.73;;;;;;;;;;6350025;27;20188;-55
2023/05/24 10:36:15;;;;;;;23.60;14.50;;;;;;;;;;6337781;27;20207;-55
2023/05/24 10:39:19;;;;;;;34.97;17.57;;;;;;;;;;6351458;27;20207;-56
2023/05/24 10:42:20;;;;;;;32.27;16.43;;;;;;;;;;6341408;27;20232;-61
2023/05/24 10:45:25;;;;;;;55.03;18.90;;;;;;;;;;6337359;27;20193;-62
2023/05/24 10:48:26;;;;;;;46.87;17.67;;;;;;;;;;6335663;27;20188;-55
2023/05/24 10:51:34;;;;;;;34.17;16.10;;;;;;;;;;6350115;27;20194;-56
2023/05/24 10:54:37;;;;;;;25.37;15.03;;;;;;;;;;6330328;27;20249;-56
2023/05/24 10:57:39;;;;;;;23.10;14.87;;;;;;;;;;6340491;27;20187;-51
2023/05/24 11:00:44;;;;;;;33.90;17.07;;;;;;;;;;6337662;27;20215;-54
2023/05/24 11:03:46;;;;;;;40.23;17.57;;;;;;;;;;6341968;27;20193;-53
2023/05/24 11:06:47;;;;;;;35.23;16.63;;;;;;;;;;6330951;27;20682;-53
2023/05/24 11:09:56;;;;;;;41.87;16.73;;;;;;;;;;6347667;27;20192;-54
2023/05/24 11:12:57;;;;;;;18.40;14.80;;;;;;;;;;6348145;27;20253;-55
2023/05/24 11:15:59;;;;;;;33.03;16.40;;;;;;;;;;6331049;27;20192;-53
2023/05/24 11:19:11;;;;;;;31.83;16.37;;;;;;;;;;6346136;27;20203;-54
2023/05/24 11:22:13;;;;;;;25.20;15.00;;;;;;;;;;6355646;27;20188;-55
2023/05/24 11:25:15;;;;;;;17.90;13.43;;;;;;;;;;6355414;27;20187;-54
2023/05/24 11:28:16;;;;;;;32.03;17.03;;;;;;;;;;6342363;27;20227;-55
2023/05/24 11:31:17;;;;;;;23.70;15.83;;;;;;;;;;6342261;27;20194;-55
2023/05/24 11:34:19;;;;;;;31.47;16.00;;;;;;;;;;6334296;27;20198;-56
2023/05/24 11:37:20;;;;;;;39.10;18.40;;;;;;;;;;6355120;27;20310;-57
2023/05/24 11:40:21;;;;;;;30.30;15.67;;;;;;;;;;6359832;27;20305;-56
2023/05/24 11:43:22;;;;;;;41.37;17.10;;;;;;;;;;6350419;27;20205;-56
2023/05/24 11:46:23;;;;;;;34.17;16.87;;;;;;;;;;6331674;27;20191;-56
2023/05/24 11:49:25;;;;;;;21.57;15.50;;;;;;;;;;6320357;28;20210;-56
2023/05/24 11:52:26;;;;;;;23.60;16.63;;;;;;;;;;6340393;27;20285;-57
2023/05/24 11:55:27;;;;;;;36.13;18.53;;;;;;;;;;6343108;27;20184;-56
2023/05/24 11:58:42;;;;;;;21.10;14.73;;;;;;;;;;6328523;27;20203;-56
2023/05/24 12:01:43;;;;;;;28.57;17.10;;;;;;;;;;6332947;28;20219;-56
2023/05/24 12:04:45;;;;;;;25.33;16.90;;;;;;;;;;6334559;27;20219;-56
2023/05/24 12:07:47;;;;;;;25.00;15.93;;;;;;;;;;6331347;28;20188;-56
2023/05/24 12:10:50;;;;;;;33.90;17.77;;;;;;;;;;6356643;27;20191;-56
2023/05/24 12:13:51;;;;;;;32.17;16.97;;;;;;;;;;6341359;27;20196;-56
2023/05/24 12:16:55;;;;;;;20.03;15.60;;;;;;;;;;6330700;27;20215;-57
2023/05/24 12:19:57;;;;;;;28.53;16.30;;;;;;;;;;6352920;27;20261;-56
2023/05/24 12:23:00;;;;;;;24.60;16.90;;;;;;;;;;6335018;27;20198;-56
2023/05/24 12:26:02;;;;;;;25.80;16.60;;;;;;;;;;6361799;27;20180;-56
2023/05/24 12:29:03;;;;;;;24.33;16.33;;;;;;;;;;6336618;28;20228;-56
2023/05/24 12:32:10;;;;;;;27.03;16.43;;;;;;;;;;6330504;28;20283;-56
2023/05/24 12:35:11;;;;;;;27.47;17.20;;;;;;;;;;6341936;27;20276;-56
2023/05/24 12:38:12;;;;;;;32.73;19.07;;;;;;;;;;6340701;27;20196;-56
2023/05/24 12:41:13;;;;;;;44.90;21.27;;;;;;;;;;6337429;28;20207;-56
2023/05/24 12:44:14;;;;;;;41.07;20.97;;;;;;;;;;6313292;27;20279;-56
2023/05/24 12:47:15;;;;;;;30.67;16.57;;;;;;;;;;6336405;27;20187;-56
2023/05/24 12:50:17;;;;;;;47.33;20.93;;;;;;;;;;6326157;27;20198;-55
2023/05/24 12:53:22;;;;;;;25.77;17.30;;;;;;;;;;6342731;27;20195;-55
2023/05/24 12:56:26;;;;;;;34.37;19.67;;;;;;;;;;6324996;28;20204;-55
2023/05/24 12:59:27;;;;;;;28.73;17.87;;;;;;;;;;6328533;27;20215;-56
2023/05/24 13:02:28;;;;;;;27.57;19.27;;;;;;;;;;6343800;28;20190;-56
2023/05/24 13:05:29;;;;;;;36.07;18.73;;;;;;;;;;6325022;28;20189;-56
2023/05/24 13:08:30;;;;;;;51.27;22.37;;;;;;;;;;6323808;27;20192;-56
2023/05/24 13:11:31;;;;;;;20.43;15.33;;;;;;;;;;6331818;27;20316;-56
2023/05/24 13:14:33;;;;;;;31.13;17.73;;;;;;;;;;6329130;27;20195;-56
2023/05/24 13:17:34;;;;;;;28.40;15.20;;;;;;;;;;6340009;27;20190;-55
2023/05/24 13:20:35;;;;;;;34.37;17.37;;;;;;;;;;6329530;27;20222;-56
2023/05/24 13:23:37;;;;;;;27.63;16.47;;;;;;;;;;6351196;27;20191;-56
2023/05/24 13:26:38;;;;;;;37.43;18.43;;;;;;;;;;6338929;27;20220;-55
2023/05/24 13:29:40;;;;;;;23.23;14.60;;;;;;;;;;6329136;27;20294;-56
2023/05/24 13:32:41;;;;;;;22.43;14.37;;;;;;;;;;6326878;27;20195;-56
2023/05/24 13:35:42;;;;;;;29.97;14.33;;;;;;;;;;6316669;28;20221;-56
2023/05/24 13:38:43;;;;;;;19.60;12.40;;;;;;;;;;6324589;28;20198;-56
2023/05/24 13:41:44;;;;;;;25.50;13.80;;;;;;;;;;6335181;28;20187;-56
2023/05/24 13:44:45;;;;;;;19.40;11.97;;;;;;;;;;6347936;27;20198;-56
2023/05/24 13:47:46;;;;;;;25.43;11.80;;;;;;;;;;6331818;27;20191;-56
2023/05/24 13:50:47;;;;;;;19.87;9.90;;;;;;;;;;6331667;27;20208;-56
2023/05/24 13:53:48;;;;;;;9.20;8.07;;;;;;;;;;6329947;28;20190;-56
2023/05/24 13:56:49;;;;;;;11.23;8.13;;;;;;;;;;6336003;28;20192;-56
2023/05/24 13:59:50;;;;;;;10.50;6.80;;;;;;;;;;6336830;27;20206;-56
2023/05/24 14:02:52;;;;;;;10.97;7.37;;;;;;;;;;6327126;27;20198;-56
2023/05/24 14:05:53;;;;;;;14.87;8.93;;;;;;;;;;6332747;28;20222;-56
2023/05/24 14:08:54;;;;;;;16.43;9.47;;;;;;;;;;6317044;28;20191;-56
2023/05/24 14:11:55;;;;;;;10.13;8.63;;;;;;;;;;6346317;27;20237;-57
2023/05/24 14:14:56;;;;;;;12.90;9.37;;;;;;;;;;6329930;28;20199;-58
2023/05/24 14:17:59;;;;;;;17.87;10.17;;;;;;;;;;6326836;27;20187;-58
2023/05/24 14:21:00;;;;;;;10.57;9.10;;;;;;;;;;6339295;28;20207;-58
2023/05/24 14:24:01;;;;;;;10.83;9.47;;;;;;;;;;6324209;27;20197;-58
2023/05/24 14:27:03;;;;;;;13.57;10.27;;;;;;;;;;6316206;28;20189;-62
2023/05/24 14:30:04;;;;;;;14.83;10.03;;;;;;;;;;6332045;28;20312;-62
2023/05/24 14:33:06;;;;;;;15.73;11.53;;;;;;;;;;6317814;27;20245;-62
2023/05/24 14:36:08;;;;;;;18.73;12.70;;;;;;;;;;6319056;27;20226;-62
2023/05/24 14:39:09;;;;;;;20.07;12.50;;;;;;;;;;6338086;28;20222;-62
2023/05/24 14:42:10;;;;;;;20.57;12.70;;;;;;;;;;6337584;28;20213;-62
2023/05/24 14:45:11;;;;;;;18.90;12.70;;;;;;;;;;6348536;28;20189;-62
2023/05/24 14:48:13;;;;;;;20.07;13.00;;;;;;;;;;6330209;28;20237;-62
2023/05/24 14:51:14;;;;;;;11.67;10.07;;;;;;;;;;6330118;28;20188;-62
2023/05/24 14:54:15;;;;;;;12.17;10.27;;;;;;;;;;6344666;27;20198;-59
2023/05/24 14:57:16;;;;;;;16.97;10.87;;;;;;;;;;6330162;27;20198;-59
2023/05/24 15:00:18;;;;;;;14.17;9.60;;;;;;;;;;6346750;27;20207;-59
2023/05/24 15:03:19;;;;;;;15.20;9.90;;;;;;;;;;6331060;27;20194;-59
2023/05/24 15:06:20;;;;;;;17.97;10.53;;;;;;;;;;6351028;27;20240;-59
2023/05/24 15:09:21;;;;;;;15.17;9.77;;;;;;;;;;6344762;27;20190;-59
2023/05/24 15:12:22;;;;;;;14.30;9.50;;;;;;;;;;6334159;27;20279;-57
2023/05/24 15:15:23;;;;;;;18.63;10.73;;;;;;;;;;6333519;27;20188;-58
2023/05/24 15:18:26;;;;;;;12.00;8.73;;;;;;;;;;6337380;27;20192;-58
2023/05/24 15:21:27;;;;;;;12.00;9.17;;;;;;;;;;6333559;27;20231;-58
2023/05/24 15:24:28;;;;;;;16.53;10.43;;;;;;;;;;6332086;27;20187;-58
2023/05/24 15:27:29;;;;;;;16.30;9.57;;;;;;;;;;6333539;27;20188;-58
2023/05/24 15:30:30;;;;;;;21.00;11.20;;;;;;;;;;6329877;27;20241;-58
2023/05/24 15:33:32;;;;;;;17.47;11.00;;;;;;;;;;6341193;27;20229;-58
2023/05/24 15:36:33;;;;;;;16.30;10.30;;;;;;;;;;6345273;27;20195;-58
2023/05/24 15:39:34;;;;;;;15.80;10.40;;;;;;;;;;6335640;27;20215;-58
2023/05/24 15:42:35;;;;;;;18.97;11.00;;;;;;;;;;6345923;27;20184;-57
2023/05/24 15:45:36;;;;;;;12.93;9.83;;;;;;;;;;6343336;27;20285;-58
2023/05/24 15:48:37;;;;;;;21.10;11.57;;;;;;;;;;6336286;27;20215;-58
2023/05/24 15:51:38;;;;;;;19.53;10.40;;;;;;;;;;6344970;27;20184;-57
2023/05/24 15:54:40;;;;;;;18.57;9.53;;;;;;;;;;6339027;27;20192;-58
2023/05/24 15:57:41;;;;;;;16.23;9.20;;;;;;;;;;6350288;27;20202;-58
2023/05/24 16:00:42;;;;;;;12.77;9.27;;;;;;;;;;6328080;27;20237;-58
2023/05/24 16:03:43;;;;;;;18.57;9.57;;;;;;;;;;6331881;27;20193;-58
2023/05/24 16:06:44;;;;;;;13.10;9.53;;;;;;;;;;6333364;27;20190;-58
2023/05/24 16:09:45;;;;;;;14.20;8.73;;;;;;;;;;6327191;27;20336;-58
2023/05/24 16:12:46;;;;;;;13.07;8.40;;;;;;;;;;6350583;27;20206;-58
2023/05/24 16:15:50;;;;;;;10.40;7.40;;;;;;;;;;6343699;27;20213;-58
2023/05/24 16:18:51;;;;;;;18.63;10.37;;;;;;;;;;6320303;28;20200;-58
2023/05/24 16:21:52;;;;;;;25.33;11.70;;;;;;;;;;6319483;28;20223;-58
2023/05/24 16:24:53;;;;;;;17.33;9.47;;;;;;;;;;6342742;27;20195;-58
2023/05/24 16:27:55;;;;;;;12.90;9.60;;;;;;;;;;6333330;27;20236;-58
2023/05/24 16:30:56;;;;;;;19.00;8.97;;;;;;;;;;6335171;27;20238;-58
2023/05/24 16:34:00;;;;;;;13.37;8.63;;;;;;;;;;6335515;27;20197;-58
2023/05/24 16:37:01;;;;;;;12.10;9.77;;;;;;;;;;6348344;27;20190;-58
2023/05/24 16:40:03;;;;;;;15.40;9.43;;;;;;;;;;6345583;28;20234;-58
2023/05/24 16:43:04;;;;;;;12.83;9.27;;;;;;;;;;6344708;27;20289;-59
2023/05/24 16:46:06;;;;;;;14.40;9.57;;;;;;;;;;6362560;27;20193;-59
2023/05/24 16:49:07;;;;;;;14.47;9.90;;;;;;;;;;6336933;27;20199;-58
2023/05/24 16:52:08;;;;;;;12.40;9.83;;;;;;;;;;6323975;28;20192;-57
2023/05/24 16:55:12;;;;;;;17.00;10.70;;;;;;;;;;6327800;27;20233;-58
2023/05/24 16:58:13;;;;;;;18.73;10.67;;;;;;;;;;6356645;27;20241;-58
2023/05/24 17:01:14;;;;;;;18.97;11.87;;;;;;;;;;6333666;27;20211;-58
2023/05/24 17:04:15;;;;;;;23.57;11.67;;;;;;;;;;6330873;27;20184;-59
2023/05/24 17:07:16;;;;;;;18.50;10.90;;;;;;;;;;6328248;28;20240;-59
2023/05/24 17:10:17;;;;;;;12.63;9.47;;;;;;;;;;6319622;27;20198;-58
2023/05/24 17:13:19;;;;;;;13.83;9.87;;;;;;;;;;6328720;27;20198;-58
2023/05/24 17:16:20;;;;;;;16.73;10.37;;;;;;;;;;6342718;27;20187;-59
2023/05/24 17:19:23;;;;;;;20.13;11.20;;;;;;;;;;6331173;27;20243;-59
2023/05/24 17:22:24;;;;;;;14.33;9.83;;;;;;;;;;6327733;28;20234;-58
2023/05/24 17:25:25;;;;;;;18.07;10.57;;;;;;;;;;6320689;27;20184;-59
2023/05/24 17:28:27;;;;;;;14.33;8.23;;;;;;;;;;6327545;27;20476;-59
2023/05/24 17:31:28;;;;;;;16.90;9.27;;;;;;;;;;6351505;27;20192;-58
2023/05/24 17:34:29;;;;;;;14.27;8.90;;;;;;;;;;6329956;27;20223;-58
2023/05/24 17:37:30;;;;;;;14.90;9.60;;;;;;;;;;6343766;28;20423;-59
2023/05/24 17:40:31;;;;;;;16.27;10.70;;;;;;;;;;6329057;28;20213;-59